N172SB LTBH-LTBW
Flight info
| Callsign | N172SB |
|---|---|
| Flight time | N/A |
| Altitude | 3000 |
| Route | OLDOK1L/04 OLDOK Y213 ASNUT W92 BIG G8 ELGOV |
| Aircraft | C172/L-SFG/C |
Departure
| Time | 2026-04-22 18:37 |
|---|---|
| Airport | Çanakkale Airport (LTBH) |
Arrival
| Time | N/A |
|---|---|
| Airport | İstanbul Hezarfen Airfield (LTBW) |
| Time | Latitude | Longitude | Altitude | Speed | Heading |
|---|---|---|---|---|---|
| 2026-04-22 18:11 | 40.13954 | 26.42555 | 31 ft | 0 kts | 62° |
| 2026-04-22 18:27 | 40.13955 | 26.42596 | 31 ft | 6 kts | 134° |
| 2026-04-22 18:27 | 40.13936 | 26.42660 | 31 ft | 9 kts | 117° |
| 2026-04-22 18:27 | 40.13899 | 26.42710 | 31 ft | 0 kts | 131° |
| 2026-04-22 18:30 | 40.13872 | 26.42750 | 30 ft | 11 kts | 130° |
| 2026-04-22 18:30 | 40.13710 | 26.42632 | 29 ft | 24 kts | 222° |
| 2026-04-22 18:30 | 40.13564 | 26.42466 | 28 ft | 31 kts | 221° |
| 2026-04-22 18:31 | 40.13396 | 26.42276 | 29 ft | 32 kts | 222° |
| 2026-04-22 18:31 | 40.13225 | 26.42082 | 28 ft | 34 kts | 221° |
| 2026-04-22 18:31 | 40.13032 | 26.41864 | 25 ft | 36 kts | 218° |
| 2026-04-22 18:31 | 40.12850 | 26.41685 | 23 ft | 30 kts | 192° |
| 2026-04-22 18:32 | 40.12729 | 26.41606 | 23 ft | 0 kts | 233° |
| 2026-04-22 18:34 | 40.12723 | 26.41572 | 23 ft | 11 kts | 290° |
| 2026-04-22 18:34 | 40.12803 | 26.41596 | 23 ft | 15 kts | 40° |
| 2026-04-22 18:35 | 40.12849 | 26.41651 | 23 ft | 0 kts | 43° |
| 2026-04-22 18:35 | 40.12871 | 26.41678 | 23 ft | 7 kts | 43° |
| 2026-04-22 18:35 | 40.12923 | 26.41740 | 24 ft | 25 kts | 40° |
| 2026-04-22 18:35 | 40.13175 | 26.42030 | 28 ft | 70 kts | 40° |
| 2026-04-22 18:36 | 40.13633 | 26.42526 | 110 ft | 92 kts | 36° |
| 2026-04-22 18:36 | 40.14169 | 26.43040 | 270 ft | 99 kts | 35° |
| 2026-04-22 18:36 | 40.14679 | 26.43597 | 365 ft | 100 kts | 41° |
| 2026-04-22 18:37 | 40.15032 | 26.44012 | 444 ft | 89 kts | 41° |
| 2026-04-22 18:37 | 40.15214 | 26.44225 | 463 ft | 88 kts | 42° |
| 2026-04-22 18:37 | 40.15579 | 26.44680 | 562 ft | 79 kts | 43° |
| 2026-04-22 18:37 | 40.15959 | 26.45139 | 660 ft | 71 kts | 42° |
| 2026-04-22 18:38 | 40.16316 | 26.45551 | 758 ft | 70 kts | 40° |
| 2026-04-22 18:38 | 40.16703 | 26.45997 | 930 ft | 77 kts | 41° |
| 2026-04-22 18:38 | 40.17114 | 26.46472 | 1143 ft | 78 kts | 41° |
| 2026-04-22 18:39 | 40.17944 | 26.47423 | 1568 ft | 84 kts | 40° |
| 2026-04-22 18:39 | 40.18395 | 26.47942 | 1793 ft | 89 kts | 41° |
| 2026-04-22 18:39 | 40.18876 | 26.48498 | 2017 ft | 95 kts | 41° |
| 2026-04-22 18:39 | 40.19338 | 26.49026 | 2338 ft | 80 kts | 40° |
| 2026-04-22 18:40 | 40.19768 | 26.49513 | 2638 ft | 81 kts | 52° |
| 2026-04-22 18:40 | 40.20157 | 26.49960 | 2937 ft | 79 kts | 49° |
| 2026-04-22 18:40 | 40.20615 | 26.50497 | 2954 ft | 95 kts | 48° |
| 2026-04-22 18:40 | 40.21110 | 26.51074 | 2948 ft | 97 kts | 47° |
| 2026-04-22 18:41 | 40.21601 | 26.51667 | 2954 ft | 94 kts | 54° |
| 2026-04-22 18:41 | 40.21890 | 26.52417 | 2951 ft | 92 kts | 76° |
| 2026-04-22 18:41 | 40.21968 | 26.53246 | 2946 ft | 92 kts | 83° |
| 2026-04-22 18:41 | 40.22034 | 26.54053 | 2941 ft | 89 kts | 82° |
| 2026-04-22 18:42 | 40.22099 | 26.54850 | 2932 ft | 86 kts | 82° |
| 2026-04-22 18:42 | 40.22163 | 26.55614 | 2930 ft | 82 kts | 82° |
| 2026-04-22 18:42 | 40.22223 | 26.56338 | 2930 ft | 78 kts | 83° |
| 2026-04-22 18:42 | 40.22281 | 26.57032 | 2933 ft | 76 kts | 83° |
| 2026-04-22 18:43 | 40.22338 | 26.57731 | 2937 ft | 80 kts | 83° |
| 2026-04-22 18:43 | 40.22398 | 26.58470 | 2943 ft | 85 kts | 83° |
| 2026-04-22 18:43 | 40.22459 | 26.59223 | 2932 ft | 83 kts | 83° |
| 2026-04-22 18:43 | 40.22520 | 26.59975 | 2936 ft | 84 kts | 83° |
| 2026-04-22 18:44 | 40.22581 | 26.60720 | 2939 ft | 82 kts | 83° |
| 2026-04-22 18:44 | 40.22640 | 26.61457 | 2940 ft | 81 kts | 84° |
| 2026-04-22 18:44 | 40.22698 | 26.62191 | 2941 ft | 81 kts | 84° |
| 2026-04-22 18:44 | 40.22758 | 26.62924 | 2950 ft | 83 kts | 84° |
| 2026-04-22 18:45 | 40.22820 | 26.63691 | 2952 ft | 86 kts | 84° |
| 2026-04-22 18:45 | 40.22882 | 26.64476 | 2954 ft | 88 kts | 84° |
| 2026-04-22 18:45 | 40.22946 | 26.65277 | 2953 ft | 89 kts | 84° |
| 2026-04-22 18:45 | 40.23009 | 26.66067 | 2952 ft | 88 kts | 85° |
| 2026-04-22 18:46 | 40.23073 | 26.66855 | 2950 ft | 86 kts | 85° |
| 2026-04-22 18:46 | 40.23135 | 26.67631 | 2936 ft | 83 kts | 85° |
| 2026-04-22 18:46 | 40.23193 | 26.68337 | 2945 ft | 76 kts | 85° |
| 2026-04-22 18:46 | 40.23252 | 26.69062 | 2956 ft | 85 kts | 85° |
| 2026-04-22 18:47 | 40.23312 | 26.69847 | 2950 ft | 88 kts | 84° |
| 2026-04-22 18:47 | 40.23374 | 26.70617 | 2960 ft | 84 kts | 84° |
| 2026-04-22 18:47 | 40.23436 | 26.71394 | 2957 ft | 86 kts | 84° |
| 2026-04-22 18:47 | 40.23498 | 26.72181 | 2967 ft | 87 kts | 84° |
| 2026-04-22 18:48 | 40.23562 | 26.73002 | 2956 ft | 91 kts | 84° |
| 2026-04-22 18:48 | 40.23626 | 26.73808 | 2957 ft | 91 kts | 85° |
| 2026-04-22 18:48 | 40.23693 | 26.74632 | 2961 ft | 90 kts | 85° |
| 2026-04-22 18:48 | 40.23758 | 26.75450 | 2957 ft | 90 kts | 85° |
| 2026-04-22 18:49 | 40.23820 | 26.76252 | 2961 ft | 88 kts | 85° |
| 2026-04-22 18:49 | 40.23886 | 26.77077 | 2963 ft | 93 kts | 85° |
| 2026-04-22 18:49 | 40.23951 | 26.77913 | 2958 ft | 92 kts | 85° |
| 2026-04-22 18:49 | 40.24016 | 26.78729 | 2952 ft | 88 kts | 84° |
| 2026-04-22 18:50 | 40.24081 | 26.79541 | 2947 ft | 92 kts | 85° |
| 2026-04-22 18:50 | 40.24145 | 26.80341 | 2959 ft | 91 kts | 85° |
| 2026-04-22 18:50 | 40.24207 | 26.81155 | 2958 ft | 90 kts | 84° |
| 2026-04-22 18:50 | 40.24272 | 26.81971 | 2975 ft | 93 kts | 84° |
| 2026-04-22 18:51 | 40.24340 | 26.82836 | 2975 ft | 96 kts | 85° |
| 2026-04-22 18:51 | 40.24409 | 26.83732 | 2965 ft | 98 kts | 85° |
| 2026-04-22 18:51 | 40.24478 | 26.84600 | 2977 ft | 98 kts | 85° |
| 2026-04-22 18:51 | 40.24547 | 26.85493 | 2973 ft | 100 kts | 85° |
| 2026-04-22 18:52 | 40.24616 | 26.86389 | 2969 ft | 96 kts | 85° |
| 2026-04-22 18:52 | 40.24685 | 26.87235 | 2953 ft | 90 kts | 84° |
| 2026-04-22 18:52 | 40.24747 | 26.88010 | 2963 ft | 85 kts | 85° |
| 2026-04-22 18:52 | 40.24720 | 26.88787 | 2959 ft | 87 kts | 101° |
| 2026-04-22 18:53 | 40.24595 | 26.89554 | 2964 ft | 89 kts | 99° |
| 2026-04-22 18:53 | 40.24471 | 26.90349 | 2961 ft | 90 kts | 99° |
| 2026-04-22 18:53 | 40.24351 | 26.91121 | 2952 ft | 82 kts | 98° |
| 2026-04-22 18:53 | 40.24234 | 26.91874 | 2977 ft | 91 kts | 99° |
| 2026-04-22 18:54 | 40.24104 | 26.92695 | 2961 ft | 92 kts | 99° |
| 2026-04-22 18:54 | 40.23976 | 26.93511 | 2972 ft | 95 kts | 100° |
| 2026-04-22 18:54 | 40.23844 | 26.94349 | 2980 ft | 94 kts | 99° |
| 2026-04-22 18:54 | 40.23707 | 26.95225 | 2969 ft | 100 kts | 99° |
| 2026-04-22 18:55 | 40.23568 | 26.96100 | 2974 ft | 95 kts | 99° |
| 2026-04-22 18:55 | 40.23435 | 26.96944 | 2968 ft | 94 kts | 99° |
| 2026-04-22 18:55 | 40.23306 | 26.97771 | 2961 ft | 92 kts | 99° |
| 2026-04-22 18:55 | 40.23180 | 26.98577 | 2965 ft | 90 kts | 99° |
| 2026-04-22 18:56 | 40.23058 | 26.99360 | 2960 ft | 87 kts | 99° |
| 2026-04-22 18:56 | 40.22936 | 27.00136 | 2961 ft | 88 kts | 99° |
| 2026-04-22 18:56 | 40.22853 | 27.00916 | 2963 ft | 87 kts | 86° |
| 2026-04-22 18:56 | 40.22971 | 27.01673 | 2960 ft | 85 kts | 79° |
| 2026-04-22 18:57 | 40.23090 | 27.02435 | 2961 ft | 86 kts | 79° |
| 2026-04-22 18:57 | 40.23212 | 27.03192 | 2965 ft | 85 kts | 79° |
| 2026-04-22 18:57 | 40.23333 | 27.03963 | 2969 ft | 87 kts | 79° |
| 2026-04-22 18:57 | 40.23456 | 27.04742 | 2975 ft | 90 kts | 79° |
| 2026-04-22 18:58 | 40.23583 | 27.05549 | 2978 ft | 91 kts | 79° |
| 2026-04-22 18:58 | 40.23711 | 27.06359 | 2975 ft | 91 kts | 80° |
| 2026-04-22 18:58 | 40.23839 | 27.07172 | 2970 ft | 91 kts | 79° |
| 2026-04-22 18:58 | 40.23967 | 27.07982 | 2977 ft | 91 kts | 79° |
| 2026-04-22 18:59 | 40.24096 | 27.08795 | 2973 ft | 92 kts | 79° |
| 2026-04-22 18:59 | 40.24224 | 27.09613 | 2974 ft | 92 kts | 80° |
| 2026-04-22 18:59 | 40.24352 | 27.10420 | 2973 ft | 91 kts | 79° |
| 2026-04-22 18:59 | 40.24481 | 27.11244 | 2979 ft | 93 kts | 79° |
| 2026-04-22 19:00 | 40.24610 | 27.12065 | 2976 ft | 91 kts | 79° |
| 2026-04-22 19:00 | 40.24739 | 27.12876 | 2970 ft | 90 kts | 79° |
| 2026-04-22 19:00 | 40.24865 | 27.13683 | 2971 ft | 91 kts | 79° |
| 2026-04-22 19:00 | 40.24993 | 27.14494 | 2966 ft | 90 kts | 79° |
| 2026-04-22 19:01 | 40.25120 | 27.15306 | 2964 ft | 91 kts | 79° |
| 2026-04-22 19:01 | 40.25247 | 27.16112 | 2967 ft | 91 kts | 79° |
| 2026-04-22 19:01 | 40.25376 | 27.16929 | 2969 ft | 91 kts | 79° |
| 2026-04-22 19:01 | 40.25504 | 27.17744 | 2969 ft | 91 kts | 79° |
| 2026-04-22 19:02 | 40.25631 | 27.18558 | 2974 ft | 91 kts | 79° |
| 2026-04-22 19:02 | 40.25757 | 27.19360 | 2975 ft | 91 kts | 79° |
| 2026-04-22 19:02 | 40.25884 | 27.20170 | 2975 ft | 91 kts | 79° |
| 2026-04-22 19:02 | 40.26012 | 27.20985 | 2976 ft | 91 kts | 79° |
| 2026-04-22 19:03 | 40.26139 | 27.21798 | 2976 ft | 91 kts | 79° |
| 2026-04-22 19:03 | 40.26266 | 27.22613 | 2975 ft | 91 kts | 79° |
| 2026-04-22 19:03 | 40.26394 | 27.23428 | 2972 ft | 91 kts | 79° |
| 2026-04-22 19:03 | 40.26520 | 27.24238 | 2976 ft | 91 kts | 79° |
| 2026-04-22 19:04 | 40.26645 | 27.25038 | 2971 ft | 91 kts | 79° |
| 2026-04-22 19:04 | 40.26773 | 27.25854 | 2974 ft | 92 kts | 79° |
| 2026-04-22 19:04 | 40.26902 | 27.26678 | 2970 ft | 92 kts | 79° |
| 2026-04-22 19:04 | 40.27029 | 27.27491 | 2970 ft | 91 kts | 79° |
| 2026-04-22 19:05 | 40.27156 | 27.28306 | 2972 ft | 91 kts | 79° |
| 2026-04-22 19:05 | 40.27283 | 27.29120 | 2971 ft | 91 kts | 79° |
| 2026-04-22 19:05 | 40.27409 | 27.29932 | 2968 ft | 91 kts | 79° |
| 2026-04-22 19:05 | 40.27534 | 27.30733 | 2965 ft | 90 kts | 79° |
| 2026-04-22 19:06 | 40.27660 | 27.31540 | 2968 ft | 90 kts | 80° |
| 2026-04-22 19:06 | 40.27785 | 27.32343 | 2963 ft | 90 kts | 79° |
| 2026-04-22 19:06 | 40.27910 | 27.33147 | 2961 ft | 90 kts | 79° |
| 2026-04-22 19:07 | 40.28153 | 27.34709 | 2957 ft | 88 kts | 79° |
| 2026-04-22 19:07 | 40.28276 | 27.35495 | 2960 ft | 88 kts | 79° |
| 2026-04-22 19:07 | 40.28398 | 27.36288 | 2961 ft | 89 kts | 79° |
| 2026-04-22 19:07 | 40.28663 | 27.37021 | 2953 ft | 90 kts | 59° |
| 2026-04-22 19:08 | 40.28998 | 27.37715 | 2956 ft | 91 kts | 61° |
| 2026-04-22 19:08 | 40.29261 | 27.38262 | 2963 ft | 91 kts | 61° |
| 2026-04-22 19:09 | 40.29583 | 27.38951 | 2930 ft | 93 kts | 62° |
| 2026-04-22 19:09 | 40.29809 | 27.39421 | 2950 ft | 91 kts | 60° |
| 2026-04-22 19:09 | 40.30269 | 27.40353 | 2953 ft | 91 kts | 61° |
| 2026-04-22 19:10 | 40.30603 | 27.41054 | 2948 ft | 91 kts | 61° |
| 2026-04-22 19:10 | 40.30938 | 27.41752 | 2948 ft | 90 kts | 61° |
| 2026-04-22 19:10 | 40.31272 | 27.42450 | 2948 ft | 89 kts | 61° |
| 2026-04-22 19:10 | 40.31604 | 27.43142 | 2950 ft | 90 kts | 61° |
| 2026-04-22 19:11 | 40.31935 | 27.43835 | 2948 ft | 92 kts | 61° |
| 2026-04-22 19:11 | 40.32277 | 27.44548 | 2950 ft | 92 kts | 61° |
| 2026-04-22 19:11 | 40.32618 | 27.45260 | 2951 ft | 91 kts | 61° |
| 2026-04-22 19:11 | 40.32842 | 27.45726 | 2950 ft | 90 kts | 61° |
| 2026-04-22 19:12 | 40.33175 | 27.46421 | 2944 ft | 90 kts | 61° |
| 2026-04-22 19:12 | 40.33508 | 27.47116 | 2943 ft | 90 kts | 61° |
| 2026-04-22 19:12 | 40.33843 | 27.47816 | 2941 ft | 90 kts | 62° |
| 2026-04-22 19:12 | 40.34175 | 27.48508 | 2945 ft | 89 kts | 60° |
| 2026-04-22 19:13 | 40.34506 | 27.49200 | 2945 ft | 89 kts | 60° |
| 2026-04-22 19:13 | 40.34834 | 27.49885 | 2944 ft | 90 kts | 61° |
| 2026-04-22 19:13 | 40.35166 | 27.50580 | 2944 ft | 90 kts | 60° |
| 2026-04-22 19:13 | 40.35501 | 27.51280 | 2946 ft | 90 kts | 60° |
| 2026-04-22 19:14 | 40.35833 | 27.51975 | 2949 ft | 90 kts | 60° |
| 2026-04-22 19:14 | 40.36163 | 27.52664 | 2947 ft | 90 kts | 60° |
| 2026-04-22 19:14 | 40.36499 | 27.53367 | 2947 ft | 91 kts | 60° |
| 2026-04-22 19:14 | 40.36836 | 27.54072 | 2948 ft | 92 kts | 60° |
| 2026-04-22 19:15 | 40.37059 | 27.54541 | 2952 ft | 91 kts | 60° |
| 2026-04-22 19:15 | 40.37508 | 27.55479 | 2954 ft | 90 kts | 60° |
| 2026-04-22 19:15 | 40.37838 | 27.56170 | 2952 ft | 92 kts | 60° |
| 2026-04-22 19:15 | 40.38177 | 27.56882 | 2953 ft | 92 kts | 60° |
| 2026-04-22 19:16 | 40.38516 | 27.57593 | 2951 ft | 91 kts | 60° |
| 2026-04-22 19:16 | 40.38850 | 27.58291 | 2950 ft | 90 kts | 60° |
| 2026-04-22 19:16 | 40.39181 | 27.58984 | 2949 ft | 91 kts | 60° |
| 2026-04-22 19:16 | 40.39517 | 27.59689 | 2950 ft | 90 kts | 60° |
| 2026-04-22 19:17 | 40.39849 | 27.60386 | 2952 ft | 89 kts | 60° |
| 2026-04-22 19:17 | 40.40181 | 27.61081 | 2948 ft | 90 kts | 60° |
| 2026-04-22 19:17 | 40.40515 | 27.61782 | 2949 ft | 90 kts | 62° |
| 2026-04-22 19:17 | 40.40848 | 27.62481 | 2950 ft | 90 kts | 60° |
| 2026-04-22 19:18 | 40.41175 | 27.63167 | 2950 ft | 90 kts | 59° |
| 2026-04-22 19:18 | 40.41531 | 27.63906 | 2960 ft | 102 kts | 60° |
| 2026-04-22 19:18 | 40.41924 | 27.64733 | 2959 ft | 109 kts | 60° |
| 2026-04-22 19:18 | 40.42329 | 27.65588 | 2959 ft | 113 kts | 60° |
| 2026-04-22 19:19 | 40.42749 | 27.66473 | 2954 ft | 113 kts | 60° |
| 2026-04-22 19:19 | 40.43167 | 27.67353 | 2952 ft | 113 kts | 60° |
| 2026-04-22 19:19 | 40.43575 | 27.68213 | 2954 ft | 112 kts | 60° |
| 2026-04-22 19:19 | 40.43988 | 27.69080 | 2954 ft | 112 kts | 60° |
| 2026-04-22 19:20 | 40.44401 | 27.69948 | 2954 ft | 112 kts | 60° |
| 2026-04-22 19:20 | 40.44810 | 27.70809 | 2951 ft | 111 kts | 60° |
| 2026-04-22 19:20 | 40.45218 | 27.71667 | 2953 ft | 111 kts | 60° |
| 2026-04-22 19:20 | 40.45621 | 27.72516 | 2955 ft | 111 kts | 61° |
| 2026-04-22 19:21 | 40.46037 | 27.73394 | 2947 ft | 114 kts | 61° |
| 2026-04-22 19:21 | 40.46444 | 27.74244 | 2943 ft | 102 kts | 61° |
| 2026-04-22 19:21 | 40.46829 | 27.75047 | 2952 ft | 108 kts | 60° |
| 2026-04-22 19:21 | 40.47227 | 27.75895 | 2953 ft | 108 kts | 60° |
| 2026-04-22 19:22 | 40.47636 | 27.76759 | 2952 ft | 113 kts | 61° |
| 2026-04-22 19:22 | 40.48047 | 27.77629 | 2947 ft | 114 kts | 61° |
| 2026-04-22 19:22 | 40.48464 | 27.78506 | 2940 ft | 112 kts | 59° |
| 2026-04-22 19:22 | 40.48859 | 27.79338 | 2936 ft | 104 kts | 60° |
| 2026-04-22 19:23 | 40.49245 | 27.80149 | 2933 ft | 105 kts | 60° |
| 2026-04-22 19:23 | 40.49643 | 27.80988 | 2948 ft | 114 kts | 60° |
| 2026-04-22 19:23 | 40.50060 | 27.81872 | 2949 ft | 113 kts | 60° |
| 2026-04-22 19:23 | 40.50479 | 27.82761 | 2947 ft | 116 kts | 59° |
| 2026-04-22 19:24 | 40.50910 | 27.83673 | 2953 ft | 118 kts | 59° |
| 2026-04-22 19:24 | 40.51340 | 27.84581 | 2947 ft | 116 kts | 59° |
| 2026-04-22 19:24 | 40.51765 | 27.85481 | 2946 ft | 114 kts | 59° |
| 2026-04-22 19:24 | 40.52181 | 27.86358 | 2948 ft | 114 kts | 60° |
| 2026-04-22 19:25 | 40.52603 | 27.87248 | 2943 ft | 114 kts | 60° |
| 2026-04-22 19:25 | 40.53021 | 27.88134 | 2939 ft | 114 kts | 59° |
| 2026-04-22 19:25 | 40.53440 | 27.89018 | 2939 ft | 114 kts | 60° |
| 2026-04-22 19:25 | 40.53861 | 27.89911 | 2937 ft | 115 kts | 60° |
| 2026-04-22 19:26 | 40.54281 | 27.90800 | 2942 ft | 114 kts | 60° |
| 2026-04-22 19:26 | 40.54696 | 27.91679 | 2940 ft | 114 kts | 60° |
| 2026-04-22 19:26 | 40.55117 | 27.92572 | 2939 ft | 115 kts | 59° |
| 2026-04-22 19:26 | 40.55539 | 27.93464 | 2936 ft | 114 kts | 60° |
| 2026-04-22 19:27 | 40.55958 | 27.94351 | 2938 ft | 114 kts | 60° |
| 2026-04-22 19:27 | 40.56377 | 27.95239 | 2935 ft | 114 kts | 60° |
| 2026-04-22 19:27 | 40.56790 | 27.96116 | 2935 ft | 114 kts | 60° |
| 2026-04-22 19:27 | 40.57210 | 27.97006 | 2934 ft | 114 kts | 60° |
| 2026-04-22 19:28 | 40.57628 | 27.97894 | 2931 ft | 114 kts | 60° |
| 2026-04-22 19:28 | 40.58045 | 27.98779 | 2936 ft | 113 kts | 60° |
| 2026-04-22 19:28 | 40.58461 | 27.99663 | 2934 ft | 114 kts | 61° |
| 2026-04-22 19:28 | 40.58877 | 28.00545 | 2933 ft | 112 kts | 60° |
| 2026-04-22 19:29 | 40.59284 | 28.01407 | 2941 ft | 112 kts | 60° |
| 2026-04-22 19:29 | 40.59842 | 28.02136 | 2934 ft | 115 kts | 39° |
| 2026-04-22 19:29 | 40.60491 | 28.02734 | 2935 ft | 113 kts | 40° |
| 2026-04-22 19:29 | 40.61130 | 28.03336 | 2936 ft | 113 kts | 39° |
| 2026-04-22 19:30 | 40.61556 | 28.03737 | 2934 ft | 113 kts | 40° |
| 2026-04-22 19:30 | 40.62410 | 28.04542 | 2936 ft | 113 kts | 40° |
| 2026-04-22 19:30 | 40.63054 | 28.05150 | 2934 ft | 114 kts | 39° |
| 2026-04-22 19:30 | 40.63704 | 28.05763 | 2937 ft | 115 kts | 39° |
| 2026-04-22 19:31 | 40.64355 | 28.06377 | 2939 ft | 114 kts | 38° |
| 2026-04-22 19:31 | 40.64994 | 28.06978 | 2941 ft | 114 kts | 40° |
| 2026-04-22 19:31 | 40.65644 | 28.07592 | 2938 ft | 114 kts | 40° |
| 2026-04-22 19:31 | 40.66293 | 28.08203 | 2938 ft | 114 kts | 39° |
| 2026-04-22 19:32 | 40.66931 | 28.08806 | 2942 ft | 114 kts | 38° |
| 2026-04-22 19:32 | 40.67577 | 28.09416 | 2939 ft | 114 kts | 39° |
| 2026-04-22 19:32 | 40.68220 | 28.10024 | 2943 ft | 113 kts | 39° |
| 2026-04-22 19:32 | 40.68866 | 28.10635 | 2945 ft | 114 kts | 41° |
| 2026-04-22 19:33 | 40.69513 | 28.11246 | 2943 ft | 114 kts | 40° |
| 2026-04-22 19:33 | 40.70148 | 28.11846 | 2940 ft | 114 kts | 40° |
| 2026-04-22 19:33 | 40.70799 | 28.12461 | 2943 ft | 115 kts | 40° |
| 2026-04-22 19:33 | 40.71448 | 28.13074 | 2946 ft | 115 kts | 39° |
| 2026-04-22 19:34 | 40.72098 | 28.13690 | 2941 ft | 115 kts | 41° |
| 2026-04-22 19:34 | 40.72751 | 28.14306 | 2947 ft | 116 kts | 40° |
| 2026-04-22 19:34 | 40.73402 | 28.14924 | 2947 ft | 116 kts | 40° |
| 2026-04-22 19:34 | 40.74057 | 28.15542 | 2949 ft | 115 kts | 40° |
| 2026-04-22 19:35 | 40.74712 | 28.16162 | 2949 ft | 116 kts | 40° |
| 2026-04-22 19:35 | 40.75368 | 28.16784 | 2953 ft | 116 kts | 40° |
| 2026-04-22 19:35 | 40.75803 | 28.17195 | 2952 ft | 115 kts | 41° |
| 2026-04-22 19:35 | 40.76668 | 28.18016 | 2947 ft | 114 kts | 41° |
| 2026-04-22 19:36 | 40.77309 | 28.18621 | 2945 ft | 114 kts | 40° |
| 2026-04-22 19:36 | 40.77954 | 28.19231 | 2949 ft | 113 kts | 40° |
| 2026-04-22 19:36 | 40.78420 | 28.20011 | 2955 ft | 111 kts | 79° |
| 2026-04-22 19:36 | 40.78548 | 28.21015 | 2952 ft | 112 kts | 70° |
| 2026-04-22 19:37 | 40.79039 | 28.21812 | 2946 ft | 114 kts | 44° |
| 2026-04-22 19:37 | 40.79655 | 28.22460 | 2949 ft | 112 kts | 43° |
| 2026-04-22 19:37 | 40.80265 | 28.23094 | 2946 ft | 114 kts | 41° |
| 2026-04-22 19:37 | 40.80916 | 28.23678 | 2945 ft | 112 kts | 39° |
| 2026-04-22 19:38 | 40.81562 | 28.24244 | 2950 ft | 112 kts | 38° |
| 2026-04-22 19:38 | 40.82215 | 28.24819 | 2948 ft | 113 kts | 39° |
| 2026-04-22 19:38 | 40.82868 | 28.25395 | 2948 ft | 114 kts | 38° |
| 2026-04-22 19:38 | 40.83532 | 28.25981 | 2952 ft | 115 kts | 39° |
| 2026-04-22 19:39 | 40.84188 | 28.26563 | 2951 ft | 115 kts | 39° |
| 2026-04-22 19:39 | 40.84853 | 28.27151 | 2955 ft | 115 kts | 39° |
| 2026-04-22 19:39 | 40.85528 | 28.27748 | 2954 ft | 116 kts | 38° |
| 2026-04-22 19:39 | 40.86196 | 28.28339 | 2956 ft | 116 kts | 37° |
| 2026-04-22 19:40 | 40.86789 | 28.29031 | 2960 ft | 113 kts | 55° |
| 2026-04-22 19:40 | 40.87121 | 28.29966 | 2962 ft | 113 kts | 78° |
| 2026-04-22 19:40 | 40.87319 | 28.30967 | 2960 ft | 113 kts | 75° |
| 2026-04-22 19:40 | 40.87524 | 28.31977 | 2957 ft | 114 kts | 76° |
| 2026-04-22 19:41 | 40.87727 | 28.32981 | 2961 ft | 115 kts | 76° |
| 2026-04-22 19:41 | 40.87927 | 28.34007 | 2961 ft | 115 kts | 76° |
| 2026-04-22 19:41 | 40.88127 | 28.35029 | 2957 ft | 114 kts | 76° |
| 2026-04-22 19:41 | 40.88330 | 28.36044 | 2962 ft | 114 kts | 76° |
| 2026-04-22 19:42 | 40.88528 | 28.37065 | 2965 ft | 114 kts | 76° |
| 2026-04-22 19:42 | 40.88723 | 28.38073 | 2965 ft | 112 kts | 75° |
| 2026-04-22 19:42 | 40.88916 | 28.39068 | 2967 ft | 113 kts | 76° |
| 2026-04-22 19:42 | 40.89108 | 28.40075 | 2965 ft | 112 kts | 76° |
| 2026-04-22 19:43 | 40.89614 | 28.42023 | 2966 ft | 113 kts | 63° |
| 2026-04-22 19:43 | 40.89944 | 28.42969 | 2967 ft | 113 kts | 66° |
| 2026-04-22 19:43 | 40.90277 | 28.43918 | 2968 ft | 114 kts | 66° |
| 2026-04-22 19:44 | 40.90615 | 28.44860 | 2970 ft | 113 kts | 66° |
| 2026-04-22 19:44 | 40.90954 | 28.45800 | 2972 ft | 113 kts | 66° |
| 2026-04-22 19:44 | 40.91291 | 28.46730 | 2976 ft | 113 kts | 67° |
| 2026-04-22 19:44 | 40.91634 | 28.47674 | 2977 ft | 114 kts | 65° |
| 2026-04-22 19:45 | 40.91979 | 28.48624 | 2974 ft | 114 kts | 67° |
| 2026-04-22 19:45 | 40.92324 | 28.49576 | 2975 ft | 116 kts | 66° |
| 2026-04-22 19:45 | 40.92672 | 28.50537 | 2974 ft | 115 kts | 67° |
| 2026-04-22 19:45 | 40.93017 | 28.51485 | 2978 ft | 114 kts | 66° |
| 2026-04-22 19:46 | 40.93360 | 28.52429 | 2980 ft | 114 kts | 66° |
| 2026-04-22 19:46 | 40.93697 | 28.53359 | 2976 ft | 113 kts | 66° |
| 2026-04-22 19:46 | 40.94038 | 28.54299 | 2976 ft | 114 kts | 66° |
| 2026-04-22 19:46 | 40.94382 | 28.55246 | 2973 ft | 114 kts | 66° |
| 2026-04-22 19:47 | 40.94724 | 28.56189 | 2977 ft | 113 kts | 66° |
| 2026-04-22 19:47 | 40.95065 | 28.57133 | 2977 ft | 114 kts | 65° |
| 2026-04-22 19:47 | 40.95292 | 28.57759 | 2976 ft | 114 kts | 66° |
| 2026-04-22 19:47 | 40.95747 | 28.59014 | 2981 ft | 114 kts | 66° |
| 2026-04-22 19:48 | 40.96090 | 28.59963 | 2979 ft | 114 kts | 66° |